Torrey, UT (84775)

2:28 PM MST on November 26, 2014 (GMT -0700)
MesoWest SR-24 @ Wayne Summit UT US UTAH DOT | Change Station
CLOSE
Current Station
Personal Weather Station
Location: Koosharem, UT
Elevation: 8377 ft
Nearby Weather Stations

Elev 8377 ft 38.45 °N, 111.83 °W | Updated 28 minutes ago

Clear
Clear
47 °F
Feels Like 42 °F
N
11
Wind Variable Wind from WSW
Gusts 16.0 mph

Today
High -- | Low -- °F
--% Chance of Precip.
Yesterday
High -- | Low -- °F
Precip. -- in
7:19 AM 5:08 PM
Waxing Crescent, 23% visible
Pressure 30.27 in
Visibility 10.0 miles
Clouds Clear
Windchill 42 °F
Dew Point 23 °F
Humidity 38%
Rainfall -999.00 in
Snow Depth Not available.
UV 3 out of 12
Pollen .10 out of 12
Air Quality Not available.
Flu Activity Not available.
METAR KBCE 262053Z AUTO 30009KT 10SM CLR 12/M07 A3046 RMK AO2 WSHFT 1959 SLP249 T01221067 56013

More Conditions Fewer Conditions

Pressure 30.27 in
Visibility 10.0 miles
Clouds Clear
Windchill 42 °F
Dew Point 23 °F
Humidity 38%
Rainfall -999.00 in
Snow Depth Not available.
UV 3 out of 12
Pollen .10 out of 12
Air Quality Not available.
Flu Activity Not available.
METAR KBCE 262053Z AUTO 30009KT 10SM CLR 12/M07 A3046 RMK AO2 WSHFT 1959 SLP249 T01221067 56013

More Conditions Fewer Conditions

10-Day Weather Forecast

Almanac

Astronomy

Nov. 26, 2014 Rise Set
Actual Time
Civil Twilight
Nautical Twilight
Astronomical Twilight
Moon
Length of Visible Light
Length of Day
Tomorrow will be .
, % of the Moon is Illuminated

Today's Extremes

State Highs State Lows

Community

WunderPhotos

Upload Photos

1,773,872 photos uploaded!

WunderBlogs® & News

Nearby

Air Quality

  Air Quality AQ Index Pollutant
Not available.

Snow Depth

Station Depth Elevation

Earthquake Activity

City Distance Mag. Time & Date
Minimum magnitude displayed is 2.5.

Coastal Water Temperatures

Place Temperature

Nearby Weather Stations